Time;durP1;ratioP1;P1;durP2;ratioP2;P2;SDS_P1;SDS_P2;PMS_P1;PMS_P2;Temp;Humidity;BMP_temperature;BMP_pressure;BME280_temperature;BME280_humidity;BME280_pressure;Samples;Min_cycle;Max_cycle;Signal;HPM_P1;HPM_P2
2022/01/20 00:01:20;;;;;;;;;;;2.30;99.90;;;;;;5083977;28;19974;-71
2022/01/20 00:03:47;;;;;;;;;;;2.30;99.90;;;;;;5083337;28;20115;-72
2022/01/20 00:09:17;;;;;;;;;;;2.20;99.90;;;;;;5053027;28;20253;-71
2022/01/20 00:25:59;;;;;;;;;;;2.10;99.90;;;;;;5080698;28;19923;-71
2022/01/20 00:28:39;;;;;;;;;;;2.10;99.90;;;;;;5083587;28;19920;-72
2022/01/20 00:31:13;;;;;;;;;;;2.20;99.90;;;;;;5083662;28;20203;-71
2022/01/20 00:33:44;;;;;;;;;;;2.20;99.90;;;;;;5082986;28;19920;-71
2022/01/20 00:38:55;;;;;;;;;;;2.20;99.90;;;;;;5083727;28;19938;-71
2022/01/20 00:41:21;;;;;;;;;;;2.10;99.90;;;;;;5083541;28;19942;-71
2022/01/20 00:43:49;;;;;;;;;;;2.20;99.90;;;;;;5082845;28;19982;-72
2022/01/20 00:46:16;;;;;;;;;;;2.10;99.90;;;;;;5083510;28;19920;-71
2022/01/20 00:48:42;;;;;;;;;;;2.10;99.90;;;;;;5079805;28;19920;-72
2022/01/20 00:51:09;;;;;;;;;;;2.00;99.90;;;;;;5063193;28;19927;-72
2022/01/20 00:53:36;;;;;;;;;;;2.10;99.90;;;;;;5062616;28;19921;-72
2022/01/20 00:56:02;;;;;;;;;;;2.00;99.90;;;;;;5062690;28;20242;-72
2022/01/20 00:58:29;;;;;;;;;;;2.10;99.90;;;;;;5063361;28;19921;-71
2022/01/20 01:00:57;;;;;;;;;;;2.10;99.90;;;;;;5063641;28;19988;-70
2022/01/20 01:03:23;;;;;;;;;;;2.10;99.90;;;;;;5063437;28;19921;-71
2022/01/20 01:06:02;;;;;;;;;;;2.00;99.90;;;;;;5062592;28;19927;-71
2022/01/20 01:08:29;;;;;;;;;;;1.90;99.90;;;;;;5067699;28;19920;-74
2022/01/20 01:10:56;;;;;;;;;;;1.90;99.90;;;;;;5083549;28;19927;-73
2022/01/20 01:13:24;;;;;;;;;;;1.80;99.90;;;;;;5083401;28;19927;-73
2022/01/20 01:15:52;;;;;;;;;;;1.80;99.90;;;;;;5082534;28;19999;-73
2022/01/20 01:21:13;;;;;;;;;;;1.80;99.90;;;;;;5083331;28;19927;-73
2022/01/20 01:23:41;;;;;;;;;;;1.70;99.90;;;;;;5082867;28;19952;-73
2022/01/20 01:26:08;;;;;;;;;;;1.70;99.90;;;;;;5080458;28;20226;-73
2022/01/20 01:28:35;;;;;;;;;;;1.70;99.90;;;;;;5083741;28;19920;-73
2022/01/20 01:31:24;;;;;;;;;;;1.60;99.90;;;;;;5086843;28;19958;-73
2022/01/20 01:33:56;;;;;;;;;;;1.60;99.90;;;;;;5086003;28;20115;-74
2022/01/20 01:36:23;;;;;;;;;;;1.70;99.90;;;;;;5086951;28;19920;-73
2022/01/20 01:38:49;;;;;;;;;;;1.70;99.90;;;;;;5086869;28;19920;-74
2022/01/20 01:41:19;;;;;;;;;;;1.70;99.90;;;;;;5086721;28;19920;-73
2022/01/20 01:43:49;;;;;;;;;;;1.70;99.90;;;;;;5085850;28;19920;-74
2022/01/20 01:46:16;;;;;;;;;;;1.70;99.90;;;;;;5086716;28;19926;-73
2022/01/20 01:48:43;;;;;;;;;;;1.70;99.90;;;;;;5086423;28;20237;-73
2022/01/20 01:51:12;;;;;;;;;;;1.80;99.90;;;;;;5086318;28;19920;-73
2022/01/20 01:53:39;;;;;;;;;;;1.80;99.90;;;;;;5085659;28;19920;-74
2022/01/20 01:56:06;;;;;;;;;;;1.80;99.90;;;;;;5086022;28;19920;-74
2022/01/20 01:58:32;;;;;;;;;;;1.80;99.90;;;;;;5086471;28;19920;-73
2022/01/20 02:00:59;;;;;;;;;;;1.80;99.90;;;;;;5086397;28;19921;-73
2022/01/20 02:03:26;;;;;;;;;;;1.80;99.90;;;;;;5086371;28;19920;-74
2022/01/20 02:06:09;;;;;;;;;;;1.80;99.90;;;;;;5085540;28;19920;-74
2022/01/20 02:08:42;;;;;;;;;;;1.80;99.90;;;;;;5086031;28;20249;-73
2022/01/20 02:19:25;;;;;;;;;;;1.80;99.90;;;;;;5085816;28;19958;-73
2022/01/20 02:21:54;;;;;;;;;;;1.80;99.90;;;;;;5086068;28;19943;-74
2022/01/20 02:24:30;;;;;;;;;;;1.80;99.90;;;;;;5082721;28;19920;-73
2022/01/20 02:26:57;;;;;;;;;;;1.80;99.90;;;;;;5085663;28;19921;-74
2022/01/20 02:29:24;;;;;;;;;;;1.80;99.90;;;;;;5085772;28;19920;-73
2022/01/20 02:31:53;;;;;;;;;;;1.80;99.90;;;;;;5085535;28;20238;-74
2022/01/20 02:34:21;;;;;;;;;;;1.70;99.90;;;;;;5085022;28;19942;-74
2022/01/20 02:36:48;;;;;;;;;;;1.70;99.90;;;;;;5085384;28;19958;-73
2022/01/20 02:39:31;;;;;;;;;;;1.70;99.90;;;;;;5085357;28;19921;-74
2022/01/20 02:44:53;;;;;;;;;;;1.70;99.90;;;;;;5084746;28;19939;-73
2022/01/20 02:47:21;;;;;;;;;;;1.70;99.90;;;;;;5085580;28;19921;-74
2022/01/20 02:49:48;;;;;;;;;;;1.70;99.90;;;;;;5072912;28;19920;-74
2022/01/20 02:52:14;;;;;;;;;;;1.70;99.90;;;;;;5065303;28;19928;-73
2022/01/20 02:54:43;;;;;;;;;;;1.60;99.90;;;;;;5064523;28;20111;-73
2022/01/20 02:57:10;;;;;;;;;;;1.60;99.90;;;;;;5065271;28;20191;-73
2022/01/20 02:59:36;;;;;;;;;;;1.60;99.90;;;;;;5075452;28;19927;-73
2022/01/20 03:02:03;;;;;;;;;;;1.60;99.90;;;;;;5084859;28;19950;-73
2022/01/20 03:04:30;;;;;;;;;;;1.60;99.90;;;;;;5084262;28;19996;-73
2022/01/20 03:07:00;;;;;;;;;;;1.60;99.90;;;;;;5082512;28;19928;-73
2022/01/20 03:09:26;;;;;;;;;;;1.60;99.90;;;;;;5084852;28;20150;-73
2022/01/20 03:11:54;;;;;;;;;;;1.60;99.90;;;;;;5084972;28;19924;-73
2022/01/20 03:14:21;;;;;;;;;;;1.50;99.90;;;;;;5084232;28;19921;-74
2022/01/20 03:16:48;;;;;;;;;;;1.60;99.90;;;;;;5085025;28;19920;-73
2022/01/20 03:19:15;;;;;;;;;;;1.60;99.90;;;;;;5084599;28;19920;-73
2022/01/20 03:21:42;;;;;;;;;;;1.50;99.90;;;;;;5084863;28;19920;-73
2022/01/20 03:24:09;;;;;;;;;;;1.50;99.90;;;;;;5083744;28;20648;-74
2022/01/20 03:26:44;;;;;;;;;;;1.50;99.90;;;;;;5082248;28;20088;-73
2022/01/20 03:29:12;;;;;;;;;;;1.50;99.90;;;;;;5084803;28;19920;-73
2022/01/20 03:31:39;;;;;;;;;;;1.50;99.90;;;;;;5084670;28;20119;-71
2022/01/20 03:34:06;;;;;;;;;;;1.50;99.90;;;;;;5083872;28;19920;-73
2022/01/20 03:36:32;;;;;;;;;;;1.50;99.90;;;;;;5084578;28;19920;-73
2022/01/20 03:38:59;;;;;;;;;;;1.40;99.90;;;;;;5084487;28;19927;-73
2022/01/20 03:41:27;;;;;;;;;;;1.50;99.90;;;;;;5083282;28;19935;-73
2022/01/20 03:43:53;;;;;;;;;;;1.50;99.90;;;;;;5083414;28;20021;-74
2022/01/20 03:46:22;;;;;;;;;;;1.50;99.90;;;;;;5084404;28;19920;-73
2022/01/20 03:48:54;;;;;;;;;;;1.50;99.90;;;;;;5084365;28;19927;-73
2022/01/20 03:51:22;;;;;;;;;;;1.50;99.90;;;;;;5083808;28;19958;-73
2022/01/20 03:53:49;;;;;;;;;;;1.60;99.90;;;;;;5083384;28;19999;-73
2022/01/20 03:56:16;;;;;;;;;;;1.60;99.90;;;;;;5084318;28;19927;-73
2022/01/20 03:58:43;;;;;;;;;;;1.60;99.90;;;;;;5084304;28;19920;-73
2022/01/20 04:01:09;;;;;;;;;;;1.60;99.90;;;;;;5084341;28;19927;-71
2022/01/20 04:03:37;;;;;;;;;;;1.60;99.90;;;;;;5083336;28;20229;-73
2022/01/20 04:06:04;;;;;;;;;;;1.60;99.90;;;;;;5084061;28;19920;-73
2022/01/20 04:08:31;;;;;;;;;;;1.60;99.90;;;;;;5084116;28;19927;-74
2022/01/20 04:10:58;;;;;;;;;;;1.60;99.90;;;;;;5084096;28;20161;-73
2022/01/20 04:13:28;;;;;;;;;;;1.60;99.90;;;;;;5083982;28;19924;-73
2022/01/20 04:15:55;;;;;;;;;;;1.60;99.90;;;;;;5083663;28;19920;-73
2022/01/20 04:18:25;;;;;;;;;;;1.60;99.90;;;;;;5083842;28;19927;-74
2022/01/20 04:20:53;;;;;;;;;;;1.60;99.90;;;;;;5084033;28;19958;-72
2022/01/20 04:23:20;;;;;;;;;;;1.70;99.90;;;;;;5083862;28;19921;-72
2022/01/20 04:25:48;;;;;;;;;;;1.70;99.90;;;;;;5080103;28;19928;-71
2022/01/20 04:28:14;;;;;;;;;;;1.70;99.90;;;;;;5083728;28;20242;-73
2022/01/20 04:30:41;;;;;;;;;;;1.70;99.90;;;;;;5083923;28;19921;-74
2022/01/20 04:33:07;;;;;;;;;;;1.70;99.90;;;;;;5083903;28;19920;-73
2022/01/20 04:35:34;;;;;;;;;;;1.70;99.90;;;;;;5083158;28;19921;-74
2022/01/20 04:38:02;;;;;;;;;;;1.70;99.90;;;;;;5083821;28;19927;-73
2022/01/20 04:40:35;;;;;;;;;;;1.70;99.90;;;;;;5083779;28;19920;-73
2022/01/20 04:43:01;;;;;;;;;;;1.70;99.90;;;;;;5083587;28;20146;-73
2022/01/20 04:45:33;;;;;;;;;;;1.70;99.90;;;;;;5083141;28;19987;-74
2022/01/20 04:48:14;;;;;;;;;;;1.70;99.90;;;;;;5083743;28;19984;-74
2022/01/20 04:58:54;;;;;;;;;;;1.80;99.90;;;;;;5083423;28;19962;-73
2022/01/20 05:01:21;;;;;;;;;;;1.80;99.90;;;;;;5083451;28;19926;-74
2022/01/20 05:03:47;;;;;;;;;;;1.70;99.90;;;;;;5084261;28;20089;-73
2022/01/20 05:06:14;;;;;;;;;;;1.70;99.90;;;;;;5087299;28;19935;-73
2022/01/20 05:08:42;;;;;;;;;;;1.70;99.90;;;;;;5073821;28;19955;-74
2022/01/20 05:11:10;;;;;;;;;;;1.70;99.90;;;;;;5067307;28;19928;-73
2022/01/20 05:13:40;;;;;;;;;;;1.80;99.90;;;;;;5066351;28;19927;-74
2022/01/20 05:16:07;;;;;;;;;;;1.80;99.90;;;;;;5066836;28;19921;-72
2022/01/20 05:18:33;;;;;;;;;;;1.80;99.90;;;;;;5066919;28;19927;-71
2022/01/20 05:21:00;;;;;;;;;;;1.80;99.90;;;;;;5066738;28;20227;-72
2022/01/20 05:23:26;;;;;;;;;;;1.80;99.90;;;;;;5066438;28;20119;-72
2022/01/20 05:25:54;;;;;;;;;;;1.80;99.90;;;;;;5065999;28;20123;-71
2022/01/20 05:28:21;;;;;;;;;;;1.80;99.90;;;;;;5071599;28;19927;-72
2022/01/20 05:30:48;;;;;;;;;;;1.80;99.90;;;;;;5086033;28;19977;-72
2022/01/20 05:33:14;;;;;;;;;;;1.80;99.90;;;;;;5086055;28;19920;-73
2022/01/20 05:35:41;;;;;;;;;;;1.80;99.90;;;;;;5083200;28;19920;-74
2022/01/20 05:38:07;;;;;;;;;;;1.90;99.90;;;;;;5086420;28;20130;-74
2022/01/20 05:40:34;;;;;;;;;;;1.80;99.90;;;;;;5071299;28;19927;-74
2022/01/20 05:43:03;;;;;;;;;;;1.80;99.90;;;;;;5066340;28;19920;-74
2022/01/20 05:45:30;;;;;;;;;;;1.80;99.90;;;;;;5065436;28;19927;-74
2022/01/20 05:48:11;;;;;;;;;;;1.80;99.90;;;;;;5065349;28;19929;-74
2022/01/20 05:50:45;;;;;;;;;;;1.90;99.90;;;;;;5066858;28;19921;-73
2022/01/20 05:53:12;;;;;;;;;;;1.80;99.90;;;;;;5066640;28;19924;-74
2022/01/20 05:55:39;;;;;;;;;;;1.90;99.90;;;;;;5065897;28;19921;-74
2022/01/20 05:58:11;;;;;;;;;;;1.90;99.90;;;;;;5065003;28;19925;-74
2022/01/20 06:00:38;;;;;;;;;;;1.90;99.90;;;;;;5066370;28;20211;-74
2022/01/20 06:05:52;;;;;;;;;;;1.90;99.90;;;;;;5085582;28;19955;-74
2022/01/20 06:08:18;;;;;;;;;;;1.80;99.90;;;;;;5066511;28;19947;-74
2022/01/20 06:10:45;;;;;;;;;;;1.80;99.90;;;;;;5065856;28;19928;-74
2022/01/20 06:13:13;;;;;;;;;;;1.90;99.90;;;;;;5066227;28;19924;-74
2022/01/20 06:15:41;;;;;;;;;;;1.80;99.90;;;;;;5065325;28;20147;-75
2022/01/20 06:18:08;;;;;;;;;;;1.90;99.90;;;;;;5065455;28;19935;-74
2022/01/20 06:20:36;;;;;;;;;;;1.90;99.90;;;;;;5066191;28;19920;-74
2022/01/20 06:23:04;;;;;;;;;;;1.90;99.90;;;;;;5065663;28;19920;-74
2022/01/20 06:25:31;;;;;;;;;;;1.90;99.90;;;;;;5065006;28;20213;-74
2022/01/20 06:27:58;;;;;;;;;;;1.90;99.90;;;;;;5065519;28;19927;-74
2022/01/20 06:30:26;;;;;;;;;;;1.90;99.90;;;;;;5065571;28;20212;-74
2022/01/20 06:32:52;;;;;;;;;;;1.90;99.90;;;;;;5065427;28;19979;-71
2022/01/20 06:35:19;;;;;;;;;;;1.80;99.90;;;;;;5064875;28;19928;-72
2022/01/20 06:37:46;;;;;;;;;;;1.90;99.90;;;;;;5065699;28;19927;-70
2022/01/20 06:40:13;;;;;;;;;;;1.90;99.90;;;;;;5065753;28;19928;-69
2022/01/20 06:42:39;;;;;;;;;;;1.90;99.90;;;;;;5064866;28;19984;-73
2022/01/20 06:45:07;;;;;;;;;;;1.90;99.90;;;;;;5064298;28;19921;-72
2022/01/20 06:47:35;;;;;;;;;;;1.90;99.90;;;;;;5064808;28;19928;-73
2022/01/20 06:50:02;;;;;;;;;;;1.90;99.90;;;;;;5065380;28;19927;-74
2022/01/20 06:52:29;;;;;;;;;;;1.90;99.90;;;;;;5065103;28;19929;-74
2022/01/20 06:54:55;;;;;;;;;;;1.90;99.90;;;;;;5063941;28;19928;-74
2022/01/20 06:57:22;;;;;;;;;;;1.90;99.90;;;;;;5064676;28;19956;-75
2022/01/20 06:59:49;;;;;;;;;;;1.90;99.90;;;;;;5063023;28;20213;-74
2022/01/20 07:02:16;;;;;;;;;;;1.90;99.90;;;;;;5064602;28;20230;-74
2022/01/20 07:04:46;;;;;;;;;;;2.00;99.90;;;;;;5063798;28;19927;-74
2022/01/20 07:07:13;;;;;;;;;;;1.90;99.90;;;;;;5064549;28;19984;-74
2022/01/20 07:09:39;;;;;;;;;;;1.90;99.90;;;;;;5064356;28;19927;-74
2022/01/20 07:12:07;;;;;;;;;;;1.90;99.90;;;;;;5064187;28;19927;-75
2022/01/20 07:14:33;;;;;;;;;;;1.90;99.90;;;;;;5063798;28;20208;-74
2022/01/20 07:17:00;;;;;;;;;;;1.90;99.90;;;;;;5064338;28;19921;-74
2022/01/20 07:19:26;;;;;;;;;;;1.90;99.90;;;;;;5064026;28;19921;-74
2022/01/20 07:21:54;;;;;;;;;;;1.90;99.90;;;;;;5064004;28;19921;-74
2022/01/20 07:24:21;;;;;;;;;;;1.80;99.90;;;;;;5063553;28;19921;-74
2022/01/20 07:26:47;;;;;;;;;;;1.80;99.90;;;;;;5063678;28;19920;-74
2022/01/20 07:29:14;;;;;;;;;;;1.80;99.90;;;;;;5064143;28;19924;-74
2022/01/20 07:31:41;;;;;;;;;;;1.80;99.90;;;;;;5063923;28;19925;-75
2022/01/20 07:34:08;;;;;;;;;;;1.80;99.90;;;;;;5063126;28;19927;-74
2022/01/20 07:36:34;;;;;;;;;;;1.90;99.90;;;;;;5062001;28;19920;-74
2022/01/20 07:39:02;;;;;;;;;;;1.80;99.90;;;;;;5064069;28;19920;-74
2022/01/20 07:41:29;;;;;;;;;;;1.90;99.90;;;;;;5063878;28;19927;-74
2022/01/20 07:43:56;;;;;;;;;;;1.80;99.90;;;;;;5063032;28;19927;-73
2022/01/20 07:46:22;;;;;;;;;;;1.80;99.90;;;;;;5063928;28;19921;-74
2022/01/20 07:48:49;;;;;;;;;;;1.80;99.90;;;;;;5063887;28;19924;-74
2022/01/20 07:51:16;;;;;;;;;;;1.80;99.90;;;;;;5063861;28;19921;-74
2022/01/20 07:53:42;;;;;;;;;;;1.90;99.90;;;;;;5063083;28;20094;-74
2022/01/20 07:56:10;;;;;;;;;;;1.90;99.90;;;;;;5063714;28;19943;-74
2022/01/20 07:58:37;;;;;;;;;;;1.90;99.90;;;;;;5062222;28;19927;-74
2022/01/20 08:01:04;;;;;;;;;;;1.90;99.90;;;;;;5063462;28;19927;-74
2022/01/20 08:03:31;;;;;;;;;;;1.90;99.90;;;;;;5063493;28;19928;-74
2022/01/20 08:05:58;;;;;;;;;;;1.90;99.90;;;;;;5063579;28;19921;-75
2022/01/20 08:08:24;;;;;;;;;;;1.90;99.90;;;;;;5063474;28;19921;-74
2022/01/20 08:10:51;;;;;;;;;;;1.90;99.90;;;;;;5063465;28;19924;-74
2022/01/20 08:13:19;;;;;;;;;;;1.90;99.90;;;;;;5063320;28;19927;-74
2022/01/20 08:15:46;;;;;;;;;;;1.90;99.90;;;;;;5062731;28;19921;-74
2022/01/20 08:18:13;;;;;;;;;;;1.90;99.90;;;;;;5063597;28;19927;-74
2022/01/20 08:20:40;;;;;;;;;;;1.90;99.90;;;;;;5063619;28;19927;-74
2022/01/20 08:23:06;;;;;;;;;;;1.90;99.90;;;;;;5063197;28;20119;-74
2022/01/20 08:25:34;;;;;;;;;;;1.90;99.90;;;;;;5062615;28;20208;-74
2022/01/20 08:28:01;;;;;;;;;;;1.90;99.90;;;;;;5063209;28;20204;-74
2022/01/20 08:30:29;;;;;;;;;;;2.00;99.90;;;;;;5063534;28;19927;-74
2022/01/20 08:32:56;;;;;;;;;;;2.00;99.90;;;;;;5063211;28;20116;-74
2022/01/20 08:35:23;;;;;;;;;;;1.90;99.90;;;;;;5062619;28;20210;-74
2022/01/20 08:37:50;;;;;;;;;;;1.90;99.90;;;;;;5064671;28;19921;-74
2022/01/20 08:40:18;;;;;;;;;;;1.90;99.90;;;;;;5067264;28;19927;-72
2022/01/20 08:42:46;;;;;;;;;;;2.00;99.90;;;;;;5066401;28;19920;-73
2022/01/20 08:45:13;;;;;;;;;;;2.00;99.90;;;;;;5066602;28;19943;-73
2022/01/20 08:47:42;;;;;;;;;;;1.90;99.90;;;;;;5079523;28;19956;-73
2022/01/20 08:50:09;;;;;;;;;;;2.00;99.90;;;;;;5084196;28;19920;-74
2022/01/20 08:52:36;;;;;;;;;;;1.90;99.90;;;;;;5086321;28;19920;-74
2022/01/20 08:55:03;;;;;;;;;;;2.00;99.90;;;;;;5085276;28;19927;-74
2022/01/20 08:57:30;;;;;;;;;;;2.00;99.90;;;;;;5086020;28;20212;-77
2022/01/20 08:59:57;;;;;;;;;;;2.00;99.90;;;;;;5086726;28;19920;-74
2022/01/20 09:02:24;;;;;;;;;;;2.00;99.90;;;;;;5086959;28;20124;-74
2022/01/20 09:04:52;;;;;;;;;;;2.10;99.90;;;;;;5085273;28;19928;-73
2022/01/20 09:07:19;;;;;;;;;;;2.10;99.90;;;;;;5086410;28;19924;-73
2022/01/20 09:09:47;;;;;;;;;;;2.10;99.90;;;;;;5086474;28;19920;-73
2022/01/20 09:15:27;;;;;;;;;;;2.20;99.90;;;;;;5086575;28;19983;-74
2022/01/20 09:17:51;;;;;;;;;;;2.20;99.90;;;;;;5075099;28;20257;-73
2022/01/20 09:20:19;;;;;;;;;;;2.20;99.90;;;;;;5087045;28;19920;-73
2022/01/20 09:22:48;;;;;;;;;;;2.30;99.90;;;;;;5077270;28;19984;-73
2022/01/20 09:25:14;;;;;;;;;;;2.30;99.90;;;;;;5086254;28;19921;-73
2022/01/20 09:27:41;;;;;;;;;;;2.30;99.90;;;;;;5087146;28;19927;-73
2022/01/20 09:30:08;;;;;;;;;;;2.40;99.90;;;;;;5081501;28;19921;-73
2022/01/20 09:32:38;;;;;;;;;;;2.40;99.90;;;;;;5067057;28;19920;-73
2022/01/20 09:35:05;;;;;;;;;;;2.40;99.90;;;;;;5083960;28;19920;-73
2022/01/20 09:37:34;;;;;;;;;;;2.50;99.90;;;;;;5086939;28;19927;-73
2022/01/20 09:40:00;;;;;;;;;;;2.50;99.90;;;;;;5086755;28;19943;-73
2022/01/20 09:42:27;;;;;;;;;;;2.50;99.90;;;;;;5086250;28;19920;-73
2022/01/20 09:44:54;;;;;;;;;;;2.50;99.90;;;;;;5086127;28;19920;-74
2022/01/20 09:47:22;;;;;;;;;;;2.60;99.90;;;;;;5079994;28;19928;-74
2022/01/20 09:49:48;;;;;;;;;;;2.60;99.90;;;;;;5077136;28;20224;-73
2022/01/20 09:52:15;;;;;;;;;;;2.60;99.90;;;;;;5086200;28;19920;-74
2022/01/20 09:54:43;;;;;;;;;;;2.60;99.90;;;;;;5085758;28;19921;-73
2022/01/20 09:57:09;;;;;;;;;;;2.60;99.90;;;;;;5086224;28;19927;-73
2022/01/20 09:59:36;;;;;;;;;;;2.70;99.90;;;;;;5086492;28;19920;-73
2022/01/20 10:02:03;;;;;;;;;;;2.70;99.90;;;;;;5086142;28;20242;-74
2022/01/20 10:04:30;;;;;;;;;;;2.70;99.90;;;;;;5085963;28;19925;-73
2022/01/20 10:06:58;;;;;;;;;;;2.70;99.90;;;;;;5085808;28;20212;-73
2022/01/20 10:09:29;;;;;;;;;;;2.70;99.90;;;;;;5086260;28;19952;-74
2022/01/20 10:11:57;;;;;;;;;;;2.70;99.90;;;;;;5086142;28;19926;-73
2022/01/20 10:14:23;;;;;;;;;;;2.80;99.90;;;;;;5085218;28;20151;-71
2022/01/20 10:16:50;;;;;;;;;;;2.80;99.90;;;;;;5085944;28;19920;-71
2022/01/20 10:19:22;;;;;;;;;;;2.70;99.90;;;;;;5085822;28;19924;-71
2022/01/20 10:21:49;;;;;;;;;;;2.70;99.90;;;;;;5082219;28;19929;-73
2022/01/20 10:24:16;;;;;;;;;;;2.60;99.90;;;;;;5084939;28;19920;-73
2022/01/20 10:26:43;;;;;;;;;;;2.50;99.90;;;;;;5085845;28;19920;-73
2022/01/20 10:29:12;;;;;;;;;;;2.50;99.90;;;;;;5085407;28;19954;-73
2022/01/20 10:31:40;;;;;;;;;;;2.50;99.90;;;;;;5085730;28;19947;-73
2022/01/20 10:34:07;;;;;;;;;;;2.40;99.90;;;;;;5084594;28;19920;-73
2022/01/20 10:36:39;;;;;;;;;;;2.40;99.90;;;;;;5085530;28;19927;-73
2022/01/20 10:39:06;;;;;;;;;;;2.40;99.90;;;;;;5085277;28;19920;-73
2022/01/20 10:41:33;;;;;;;;;;;2.50;99.90;;;;;;5085505;28;19927;-73
2022/01/20 10:44:01;;;;;;;;;;;2.50;99.90;;;;;;5084445;28;19928;-72
2022/01/20 10:46:30;;;;;;;;;;;2.50;99.90;;;;;;5085262;28;19921;-73
2022/01/20 10:49:00;;;;;;;;;;;2.60;99.90;;;;;;5085171;28;19920;-73
2022/01/20 10:51:27;;;;;;;;;;;2.60;99.90;;;;;;5084901;28;19927;-73
2022/01/20 10:54:00;;;;;;;;;;;2.60;99.90;;;;;;5084316;28;19920;-74
2022/01/20 10:56:27;;;;;;;;;;;2.60;99.90;;;;;;5084539;28;20111;-73
2022/01/20 10:58:53;;;;;;;;;;;2.50;99.90;;;;;;5085244;28;20182;-74
2022/01/20 11:01:20;;;;;;;;;;;2.60;99.90;;;;;;5083611;28;19924;-73
2022/01/20 11:03:48;;;;;;;;;;;2.50;99.90;;;;;;5084365;28;19920;-74
2022/01/20 11:06:14;;;;;;;;;;;2.50;99.90;;;;;;5084357;28;19921;-73
2022/01/20 11:08:43;;;;;;;;;;;2.50;99.90;;;;;;5084754;28;19928;-73
2022/01/20 11:11:10;;;;;;;;;;;2.40;99.90;;;;;;5084359;28;19939;-73
2022/01/20 11:13:37;;;;;;;;;;;2.40;99.90;;;;;;5084442;28;19920;-74
2022/01/20 11:16:04;;;;;;;;;;;2.40;99.90;;;;;;5084526;28;20146;-73
2022/01/20 11:18:30;;;;;;;;;;;2.40;99.90;;;;;;5084635;28;19920;-71
2022/01/20 11:21:00;;;;;;;;;;;2.40;99.90;;;;;;5082372;28;19926;-71
2022/01/20 11:23:35;;;;;;;;;;;2.40;99.90;;;;;;5080508;28;19920;-73
2022/01/20 11:26:04;;;;;;;;;;;2.50;99.90;;;;;;5084590;28;19920;-73
2022/01/20 11:28:30;;;;;;;;;;;2.50;99.90;;;;;;5084352;28;19920;-74
2022/01/20 11:30:58;;;;;;;;;;;2.60;99.90;;;;;;5084377;28;20111;-73
2022/01/20 11:33:32;;;;;;;;;;;2.70;99.90;;;;;;5083185;28;19942;-73
2022/01/20 11:36:00;;;;;;;;;;;2.60;99.90;;;;;;5084383;28;19925;-73
2022/01/20 11:38:36;;;;;;;;;;;2.60;99.90;;;;;;5084468;28;19921;-73
2022/01/20 11:41:04;;;;;;;;;;;2.70;99.90;;;;;;5084666;28;19921;-74
2022/01/20 11:43:34;;;;;;;;;;;2.60;99.90;;;;;;5104369;22;19921;-70
2022/01/20 11:46:10;;;;;;;;;;;2.50;99.90;;;;;;5083384;28;20134;-71
2022/01/20 11:48:36;;;;;;;;;;;2.20;99.90;;;;;;5064309;28;19920;-71
2022/01/20 11:51:06;;;;;;;;;;;1.80;99.90;;;;;;5075021;28;20204;-71
2022/01/20 11:53:32;;;;;;;;;;;1.60;99.90;;;;;;5051388;28;19984;-70
2022/01/20 11:56:00;;;;;;;;;;;1.40;99.90;;;;;;5044001;28;19927;-70
2022/01/20 11:58:27;;;;;;;;;;;1.30;99.90;;;;;;5050263;28;19921;-70
2022/01/20 12:01:01;;;;;;;;;;;1.20;99.90;;;;;;5044043;28;19936;-73
2022/01/20 12:03:28;;;;;;;;;;;1.20;99.90;;;;;;5056146;28;19920;-71
2022/01/20 12:05:59;;;;;;;;;;;1.10;99.90;;;;;;5053751;28;19927;-71
2022/01/20 12:08:27;;;;;;;;;;;1.00;99.90;;;;;;5054024;28;19929;-71
2022/01/20 12:11:00;;;;;;;;;;;0.90;99.90;;;;;;5043761;28;20208;-71
2022/01/20 12:13:27;;;;;;;;;;;0.90;99.90;;;;;;5045185;28;19925;-71
2022/01/20 12:15:55;;;;;;;;;;;0.90;99.90;;;;;;5063622;28;19927;-71
2022/01/20 12:18:22;;;;;;;;;;;0.80;99.90;;;;;;5063785;28;19927;-71
2022/01/20 12:20:49;;;;;;;;;;;0.80;99.90;;;;;;5048983;28;20081;-71
2022/01/20 12:23:17;;;;;;;;;;;0.90;99.90;;;;;;5063382;28;19921;-71
2022/01/20 12:25:45;;;;;;;;;;;0.90;99.90;;;;;;5062619;28;20168;-72
2022/01/20 12:28:13;;;;;;;;;;;0.90;99.90;;;;;;5060036;28;19921;-72
2022/01/20 12:30:44;;;;;;;;;;;1.00;99.90;;;;;;5059390;28;19997;-70
2022/01/20 12:33:14;;;;;;;;;;;1.10;99.90;;;;;;5061882;28;19928;-71
2022/01/20 12:35:42;;;;;;;;;;;1.10;99.90;;;;;;5063595;28;19943;-71
2022/01/20 12:38:20;;;;;;;;;;;1.20;99.90;;;;;;5061235;28;19974;-71
2022/01/20 12:40:58;;;;;;;;;;;1.30;99.90;;;;;;5043609;28;19928;-71
2022/01/20 12:43:33;;;;;;;;;;;1.30;99.90;;;;;;5049658;28;19925;-71
2022/01/20 12:46:00;;;;;;;;;;;1.40;99.90;;;;;;5063346;28;19927;-71
2022/01/20 12:48:26;;;;;;;;;;;1.50;99.90;;;;;;5062765;28;19927;-72
2022/01/20 12:50:55;;;;;;;;;;;1.50;99.90;;;;;;5060065;28;19920;-71
2022/01/20 12:53:30;;;;;;;;;;;1.60;99.90;;;;;;5062630;28;19966;-71
2022/01/20 12:55:58;;;;;;;;;;;1.70;99.90;;;;;;5050320;28;20112;-71
2022/01/20 12:58:25;;;;;;;;;;;1.80;99.90;;;;;;5048134;28;19928;-71
2022/01/20 13:01:02;;;;;;;;;;;2.10;99.90;;;;;;5048139;28;19928;-71
2022/01/20 13:03:35;;;;;;;;;;;2.40;99.90;;;;;;5061606;28;19921;-69
2022/01/20 13:06:02;;;;;;;;;;;2.60;99.90;;;;;;5043016;28;19921;-71
2022/01/20 13:08:32;;;;;;;;;;;2.90;99.90;;;;;;5043207;28;19928;-70
2022/01/20 13:11:03;;;;;;;;;;;3.10;99.90;;;;;;5061406;28;19920;-70
2022/01/20 13:13:30;;;;;;;;;;;3.30;99.90;;;;;;5055289;28;19976;-69
2022/01/20 13:15:56;;;;;;;;;;;3.40;99.90;;;;;;5042815;28;19921;-74
2022/01/20 13:18:23;;;;;;;;;;;3.50;99.90;;;;;;5050715;28;19928;-72
2022/01/20 13:20:54;;;;;;;;;;;3.40;99.90;;;;;;5058414;28;19928;-72
2022/01/20 13:26:07;;;;;;;;;;;3.40;99.90;;;;;;5064271;28;20012;-71
2022/01/20 13:28:34;;;;;;;;;;;3.60;99.90;;;;;;5066636;28;19920;-71
2022/01/20 13:31:12;;;;;;;;;;;3.60;99.90;;;;;;5060531;28;19921;-72
2022/01/20 13:33:39;;;;;;;;;;;3.70;99.90;;;;;;5061455;28;19920;-72
2022/01/20 13:36:06;;;;;;;;;;;3.50;99.90;;;;;;5066957;28;19921;-71
2022/01/20 13:38:33;;;;;;;;;;;3.40;99.90;;;;;;5065649;28;19943;-71
2022/01/20 13:41:06;;;;;;;;;;;3.30;99.90;;;;;;5064742;28;19943;-71
2022/01/20 13:46:21;;;;;;;;;;;3.10;99.90;;;;;;5066292;28;19927;-71
2022/01/20 13:48:48;;;;;;;;;;;3.10;99.90;;;;;;5065262;28;19920;-71
2022/01/20 13:51:17;;;;;;;;;;;3.10;99.90;;;;;;5047339;28;19921;-72
2022/01/20 13:53:43;;;;;;;;;;;3.00;99.90;;;;;;5045610;28;20208;-70
2022/01/20 13:56:10;;;;;;;;;;;3.00;99.90;;;;;;5065094;28;19920;-71
2022/01/20 13:58:39;;;;;;;;;;;3.00;99.90;;;;;;5066187;28;19921;-72
2022/01/20 14:01:08;;;;;;;;;;;3.00;99.90;;;;;;5053906;28;19956;-72
2022/01/20 14:03:36;;;;;;;;;;;3.00;99.90;;;;;;5061008;28;19962;-72
2022/01/20 14:06:03;;;;;;;;;;;2.80;99.90;;;;;;5059193;28;19929;-72
2022/01/20 14:08:34;;;;;;;;;;;2.70;99.90;;;;;;5065542;28;19979;-73
2022/01/20 14:11:00;;;;;;;;;;;2.60;99.90;;;;;;5064765;28;19973;-70
2022/01/20 14:13:27;;;;;;;;;;;2.60;99.90;;;;;;5054980;28;19921;-71
2022/01/20 14:15:57;;;;;;;;;;;2.60;99.90;;;;;;5064109;28;21133;-72
2022/01/20 14:18:30;;;;;;;;;;;2.60;99.90;;;;;;5052698;28;19921;-72
2022/01/20 14:20:57;;;;;;;;;;;2.60;99.90;;;;;;5045494;28;19921;-72
2022/01/20 14:23:23;;;;;;;;;;;2.50;99.90;;;;;;5050513;28;19927;-72
2022/01/20 14:25:50;;;;;;;;;;;2.60;99.90;;;;;;5064827;28;20212;-71
2022/01/20 14:28:17;;;;;;;;;;;2.60;99.90;;;;;;5061415;28;19921;-70
2022/01/20 14:30:44;;;;;;;;;;;2.50;99.90;;;;;;5047702;28;19944;-72
2022/01/20 14:33:13;;;;;;;;;;;2.50;99.90;;;;;;5060215;28;19927;-72
2022/01/20 14:35:40;;;;;;;;;;;2.50;99.90;;;;;;5055814;28;19921;-71
2022/01/20 14:38:07;;;;;;;;;;;2.50;99.90;;;;;;5049100;28;19928;-70
2022/01/20 14:40:33;;;;;;;;;;;2.50;99.90;;;;;;5045689;28;19921;-68
2022/01/20 14:43:00;;;;;;;;;;;2.50;99.90;;;;;;5058984;28;19931;-69
2022/01/20 14:45:26;;;;;;;;;;;2.70;99.90;;;;;;5063682;28;19924;-69
2022/01/20 14:47:53;;;;;;;;;;;2.70;99.90;;;;;;5063455;28;19928;-69
2022/01/20 14:50:22;;;;;;;;;;;2.60;99.90;;;;;;5061901;28;20212;-69
2022/01/20 14:52:48;;;;;;;;;;;2.70;99.90;;;;;;5044227;28;19921;-69
2022/01/20 14:55:15;;;;;;;;;;;2.80;99.90;;;;;;5062306;28;20123;-69
2022/01/20 14:57:42;;;;;;;;;;;2.70;99.90;;;;;;5063866;28;19921;-69
2022/01/20 15:00:10;;;;;;;;;;;2.70;99.90;;;;;;5064383;28;19932;-69
2022/01/20 15:02:36;;;;;;;;;;;2.80;99.90;;;;;;5063955;28;19921;-70
2022/01/20 15:05:03;;;;;;;;;;;2.80;99.90;;;;;;5063890;28;20115;-71
2022/01/20 15:07:31;;;;;;;;;;;2.70;99.90;;;;;;5063690;28;20260;-70
2022/01/20 15:09:58;;;;;;;;;;;2.70;99.90;;;;;;5063747;28;19921;-70
2022/01/20 15:12:24;;;;;;;;;;;2.50;99.90;;;;;;5063729;28;19931;-71
2022/01/20 15:14:51;;;;;;;;;;;2.40;99.90;;;;;;5063843;28;19968;-70
2022/01/20 15:17:17;;;;;;;;;;;2.40;99.90;;;;;;5063567;28;19920;-70
2022/01/20 15:19:44;;;;;;;;;;;2.30;99.90;;;;;;5064004;28;19927;-70
2022/01/20 15:22:10;;;;;;;;;;;2.20;99.90;;;;;;5063549;28;19935;-71
2022/01/20 15:24:38;;;;;;;;;;;2.10;99.90;;;;;;5054903;28;19924;-71
2022/01/20 15:27:05;;;;;;;;;;;2.00;99.90;;;;;;5063598;28;19991;-73
2022/01/20 15:29:32;;;;;;;;;;;1.90;99.90;;;;;;5063346;28;19927;-70